sensor_id;sensor_type;location;lat;lon;timestamp;P1;durP1;ratioP1;P2;durP2;ratioP2
50102;SDS011;35993;52.604;10.078;2023-03-11T00:00:20;7.60;;;4.60;;
50102;SDS011;35993;52.604;10.078;2023-03-11T00:02:49;9.33;;;5.63;;
50102;SDS011;35993;52.604;10.078;2023-03-11T00:05:26;8.90;;;5.67;;
50102;SDS011;35993;52.604;10.078;2023-03-11T00:07:56;11.17;;;6.37;;
50102;SDS011;35993;52.604;10.078;2023-03-11T00:13:23;11.67;;;5.90;;
50102;SDS011;35993;52.604;10.078;2023-03-11T00:15:49;8.13;;;5.20;;
50102;SDS011;35993;52.604;10.078;2023-03-11T00:18:20;9.57;;;5.67;;
50102;SDS011;35993;52.604;10.078;2023-03-11T00:20:49;10.97;;;6.13;;
50102;SDS011;35993;52.604;10.078;2023-03-11T00:23:15;9.43;;;5.87;;
50102;SDS011;35993;52.604;10.078;2023-03-11T00:25:42;11.07;;;6.47;;
50102;SDS011;35993;52.604;10.078;2023-03-11T00:28:09;10.60;;;6.37;;
50102;SDS011;35993;52.604;10.078;2023-03-11T00:30:35;11.93;;;6.30;;
50102;SDS011;35993;52.604;10.078;2023-03-11T00:33:02;11.37;;;6.43;;
50102;SDS011;35993;52.604;10.078;2023-03-11T00:35:29;12.77;;;6.90;;
50102;SDS011;35993;52.604;10.078;2023-03-11T00:37:57;13.90;;;7.17;;
50102;SDS011;35993;52.604;10.078;2023-03-11T00:40:29;10.68;;;6.15;;
50102;SDS011;35993;52.604;10.078;2023-03-11T00:42:56;11.63;;;6.40;;
50102;SDS011;35993;52.604;10.078;2023-03-11T00:45:22;11.03;;;6.27;;
50102;SDS011;35993;52.604;10.078;2023-03-11T00:47:49;11.37;;;6.97;;
50102;SDS011;35993;52.604;10.078;2023-03-11T00:50:17;13.50;;;7.40;;
50102;SDS011;35993;52.604;10.078;2023-03-11T00:52:46;12.87;;;7.17;;
50102;SDS011;35993;52.604;10.078;2023-03-11T00:55:13;11.33;;;6.57;;
50102;SDS011;35993;52.604;10.078;2023-03-11T00:57:41;11.37;;;6.53;;
50102;SDS011;35993;52.604;10.078;2023-03-11T01:00:08;11.47;;;6.43;;
50102;SDS011;35993;52.604;10.078;2023-03-11T01:02:38;12.03;;;6.63;;
50102;SDS011;35993;52.604;10.078;2023-03-11T01:05:04;9.93;;;5.80;;
50102;SDS011;35993;52.604;10.078;2023-03-11T01:07:31;13.10;;;7.00;;
50102;SDS011;35993;52.604;10.078;2023-03-11T01:09:58;12.70;;;7.30;;
50102;SDS011;35993;52.604;10.078;2023-03-11T01:12:24;11.70;;;7.03;;
50102;SDS011;35993;52.604;10.078;2023-03-11T01:14:49;12.63;;;7.30;;
50102;SDS011;35993;52.604;10.078;2023-03-11T01:17:15;15.10;;;7.67;;
50102;SDS011;35993;52.604;10.078;2023-03-11T01:19:41;11.60;;;7.23;;
50102;SDS011;35993;52.604;10.078;2023-03-11T01:22:06;12.90;;;7.53;;
50102;SDS011;35993;52.604;10.078;2023-03-11T01:24:33;11.70;;;7.30;;
50102;SDS011;35993;52.604;10.078;2023-03-11T01:26:58;12.10;;;6.53;;
50102;SDS011;35993;52.604;10.078;2023-03-11T01:29:24;12.40;;;7.07;;
50102;SDS011;35993;52.604;10.078;2023-03-11T01:31:49;11.90;;;6.67;;
50102;SDS011;35993;52.604;10.078;2023-03-11T01:34:15;13.80;;;6.90;;
50102;SDS011;35993;52.604;10.078;2023-03-11T01:36:41;12.50;;;7.27;;
50102;SDS011;35993;52.604;10.078;2023-03-11T01:39:06;11.37;;;6.33;;
50102;SDS011;35993;52.604;10.078;2023-03-11T01:41:32;17.43;;;8.07;;
50102;SDS011;35993;52.604;10.078;2023-03-11T01:44:00;16.27;;;8.00;;
50102;SDS011;35993;52.604;10.078;2023-03-11T01:46:35;14.50;;;8.15;;
50102;SDS011;35993;52.604;10.078;2023-03-11T01:49:28;11.57;;;6.67;;
50102;SDS011;35993;52.604;10.078;2023-03-11T01:51:55;13.27;;;7.17;;
50102;SDS011;35993;52.604;10.078;2023-03-11T01:54:25;14.77;;;7.57;;
50102;SDS011;35993;52.604;10.078;2023-03-11T01:56:53;14.63;;;7.77;;
50102;SDS011;35993;52.604;10.078;2023-03-11T01:59:22;15.03;;;8.60;;
50102;SDS011;35993;52.604;10.078;2023-03-11T02:01:52;12.87;;;7.40;;
50102;SDS011;35993;52.604;10.078;2023-03-11T02:04:23;22.80;;;10.47;;
50102;SDS011;35993;52.604;10.078;2023-03-11T02:06:52;11.00;;;6.33;;
50102;SDS011;35993;52.604;10.078;2023-03-11T02:09:17;12.63;;;7.30;;
50102;SDS011;35993;52.604;10.078;2023-03-11T02:11:43;14.17;;;7.97;;
50102;SDS011;35993;52.604;10.078;2023-03-11T02:14:09;13.53;;;7.30;;
50102;SDS011;35993;52.604;10.078;2023-03-11T02:16:35;13.70;;;7.00;;
50102;SDS011;35993;52.604;10.078;2023-03-11T02:19:03;12.50;;;7.10;;
50102;SDS011;35993;52.604;10.078;2023-03-11T02:22:00;12.20;;;6.77;;
50102;SDS011;35993;52.604;10.078;2023-03-11T02:24:30;13.00;;;7.20;;
50102;SDS011;35993;52.604;10.078;2023-03-11T02:27:08;11.90;;;6.37;;
50102;SDS011;35993;52.604;10.078;2023-03-11T02:29:37;12.43;;;6.60;;
50102;SDS011;35993;52.604;10.078;2023-03-11T02:32:05;12.17;;;5.80;;
50102;SDS011;35993;52.604;10.078;2023-03-11T02:34:34;11.03;;;6.07;;
50102;SDS011;35993;52.604;10.078;2023-03-11T02:37:06;11.53;;;6.17;;
50102;SDS011;35993;52.604;10.078;2023-03-11T02:39:40;11.37;;;6.00;;
50102;SDS011;35993;52.604;10.078;2023-03-11T02:42:32;8.85;;;4.88;;
50102;SDS011;35993;52.604;10.078;2023-03-11T02:44:59;8.83;;;4.80;;
50102;SDS011;35993;52.604;10.078;2023-03-11T02:49:55;9.70;;;4.50;;
50102;SDS011;35993;52.604;10.078;2023-03-11T02:52:21;12.67;;;5.00;;
50102;SDS011;35993;52.604;10.078;2023-03-11T02:54:49;12.53;;;5.53;;
50102;SDS011;35993;52.604;10.078;2023-03-11T02:57:15;8.37;;;4.17;;
50102;SDS011;35993;52.604;10.078;2023-03-11T02:59:40;8.33;;;4.67;;
50102;SDS011;35993;52.604;10.078;2023-03-11T03:02:07;9.23;;;4.87;;
50102;SDS011;35993;52.604;10.078;2023-03-11T03:04:32;8.90;;;5.00;;
50102;SDS011;35993;52.604;10.078;2023-03-11T03:06:58;9.57;;;4.70;;
50102;SDS011;35993;52.604;10.078;2023-03-11T03:09:24;8.40;;;4.73;;
50102;SDS011;35993;52.604;10.078;2023-03-11T03:11:49;7.53;;;4.30;;
50102;SDS011;35993;52.604;10.078;2023-03-11T03:14:15;7.63;;;3.90;;
50102;SDS011;35993;52.604;10.078;2023-03-11T03:16:41;6.43;;;3.87;;
50102;SDS011;35993;52.604;10.078;2023-03-11T03:19:07;6.83;;;3.57;;
50102;SDS011;35993;52.604;10.078;2023-03-11T03:21:33;7.47;;;4.50;;
50102;SDS011;35993;52.604;10.078;2023-03-11T03:23:58;9.20;;;4.83;;
50102;SDS011;35993;52.604;10.078;2023-03-11T03:26:24;10.00;;;4.40;;
50102;SDS011;35993;52.604;10.078;2023-03-11T03:28:50;7.30;;;4.27;;
50102;SDS011;35993;52.604;10.078;2023-03-11T03:31:16;7.93;;;4.33;;
50102;SDS011;35993;52.604;10.078;2023-03-11T03:33:42;7.43;;;4.60;;
50102;SDS011;35993;52.604;10.078;2023-03-11T03:36:09;10.40;;;4.33;;
50102;SDS011;35993;52.604;10.078;2023-03-11T03:38:52;9.17;;;5.10;;
50102;SDS011;35993;52.604;10.078;2023-03-11T03:41:24;6.17;;;3.87;;
50102;SDS011;35993;52.604;10.078;2023-03-11T03:43:50;8.97;;;4.37;;
50102;SDS011;35993;52.604;10.078;2023-03-11T03:46:17;9.37;;;4.10;;
50102;SDS011;35993;52.604;10.078;2023-03-11T03:48:46;7.53;;;4.33;;
50102;SDS011;35993;52.604;10.078;2023-03-11T03:51:12;7.63;;;4.10;;
50102;SDS011;35993;52.604;10.078;2023-03-11T03:53:53;8.27;;;4.28;;
50102;SDS011;35993;52.604;10.078;2023-03-11T03:56:19;7.83;;;3.90;;
50102;SDS011;35993;52.604;10.078;2023-03-11T03:58:45;7.27;;;4.27;;
50102;SDS011;35993;52.604;10.078;2023-03-11T04:01:11;6.27;;;3.87;;
50102;SDS011;35993;52.604;10.078;2023-03-11T04:03:38;10.00;;;4.80;;
50102;SDS011;35993;52.604;10.078;2023-03-11T04:06:08;9.57;;;4.50;;
50102;SDS011;35993;52.604;10.078;2023-03-11T04:08:42;7.20;;;4.27;;
50102;SDS011;35993;52.604;10.078;2023-03-11T04:11:09;8.20;;;3.80;;
50102;SDS011;35993;52.604;10.078;2023-03-11T04:13:36;8.40;;;3.53;;
50102;SDS011;35993;52.604;10.078;2023-03-11T04:16:02;5.83;;;3.63;;
50102;SDS011;35993;52.604;10.078;2023-03-11T04:18:29;5.63;;;3.70;;
50102;SDS011;35993;52.604;10.078;2023-03-11T04:20:55;6.13;;;3.57;;
50102;SDS011;35993;52.604;10.078;2023-03-11T04:23:21;6.93;;;3.83;;
50102;SDS011;35993;52.604;10.078;2023-03-11T04:25:47;5.03;;;3.30;;
50102;SDS011;35993;52.604;10.078;2023-03-11T04:28:12;8.17;;;3.20;;
50102;SDS011;35993;52.604;10.078;2023-03-11T04:30:38;7.30;;;3.27;;
50102;SDS011;35993;52.604;10.078;2023-03-11T04:33:04;5.27;;;3.37;;
50102;SDS011;35993;52.604;10.078;2023-03-11T04:35:29;7.90;;;4.00;;
50102;SDS011;35993;52.604;10.078;2023-03-11T04:37:55;6.23;;;3.20;;
50102;SDS011;35993;52.604;10.078;2023-03-11T04:40:23;4.70;;;3.30;;
50102;SDS011;35993;52.604;10.078;2023-03-11T04:42:49;6.53;;;3.70;;
50102;SDS011;35993;52.604;10.078;2023-03-11T04:45:15;4.80;;;2.70;;
50102;SDS011;35993;52.604;10.078;2023-03-11T04:47:46;5.60;;;3.47;;
50102;SDS011;35993;52.604;10.078;2023-03-11T04:50:13;7.67;;;3.30;;
50102;SDS011;35993;52.604;10.078;2023-03-11T04:52:38;5.20;;;3.10;;
50102;SDS011;35993;52.604;10.078;2023-03-11T04:55:05;6.53;;;3.30;;
50102;SDS011;35993;52.604;10.078;2023-03-11T04:57:31;4.97;;;3.27;;
50102;SDS011;35993;52.604;10.078;2023-03-11T04:59:57;4.53;;;3.10;;
50102;SDS011;35993;52.604;10.078;2023-03-11T05:02:23;5.13;;;3.10;;
50102;SDS011;35993;52.604;10.078;2023-03-11T05:04:53;4.43;;;3.03;;
50102;SDS011;35993;52.604;10.078;2023-03-11T05:07:19;6.40;;;3.57;;
50102;SDS011;35993;52.604;10.078;2023-03-11T05:09:45;6.50;;;3.83;;
50102;SDS011;35993;52.604;10.078;2023-03-11T05:12:11;5.35;;;3.50;;
50102;SDS011;35993;52.604;10.078;2023-03-11T05:14:37;8.33;;;4.30;;
50102;SDS011;35993;52.604;10.078;2023-03-11T05:17:03;6.30;;;3.50;;
50102;SDS011;35993;52.604;10.078;2023-03-11T05:19:29;7.17;;;3.30;;
50102;SDS011;35993;52.604;10.078;2023-03-11T05:22:07;7.77;;;3.20;;
50102;SDS011;35993;52.604;10.078;2023-03-11T05:24:32;7.73;;;3.70;;
50102;SDS011;35993;52.604;10.078;2023-03-11T05:26:58;5.50;;;3.50;;
50102;SDS011;35993;52.604;10.078;2023-03-11T05:29:24;5.20;;;3.07;;
50102;SDS011;35993;52.604;10.078;2023-03-11T05:31:51;6.33;;;2.90;;
50102;SDS011;35993;52.604;10.078;2023-03-11T05:34:18;6.33;;;3.07;;
50102;SDS011;35993;52.604;10.078;2023-03-11T05:36:44;5.13;;;2.97;;
50102;SDS011;35993;52.604;10.078;2023-03-11T05:39:10;7.80;;;3.07;;
50102;SDS011;35993;52.604;10.078;2023-03-11T05:41:36;5.90;;;3.33;;
50102;SDS011;35993;52.604;10.078;2023-03-11T05:44:02;8.37;;;3.33;;
50102;SDS011;35993;52.604;10.078;2023-03-11T05:46:28;6.83;;;3.03;;
50102;SDS011;35993;52.604;10.078;2023-03-11T05:48:54;8.93;;;3.03;;
50102;SDS011;35993;52.604;10.078;2023-03-11T05:51:20;5.73;;;3.03;;
50102;SDS011;35993;52.604;10.078;2023-03-11T05:53:47;8.47;;;3.47;;
50102;SDS011;35993;52.604;10.078;2023-03-11T05:56:19;5.23;;;3.13;;
50102;SDS011;35993;52.604;10.078;2023-03-11T05:58:46;5.20;;;2.80;;
50102;SDS011;35993;52.604;10.078;2023-03-11T06:01:15;12.30;;;3.20;;
50102;SDS011;35993;52.604;10.078;2023-03-11T06:03:42;10.37;;;3.13;;
50102;SDS011;35993;52.604;10.078;2023-03-11T06:06:09;7.57;;;3.33;;
50102;SDS011;35993;52.604;10.078;2023-03-11T06:08:37;4.37;;;3.17;;
50102;SDS011;35993;52.604;10.078;2023-03-11T06:11:07;7.63;;;3.20;;
50102;SDS011;35993;52.604;10.078;2023-03-11T06:13:36;7.00;;;3.40;;
50102;SDS011;35993;52.604;10.078;2023-03-11T06:16:02;6.73;;;3.23;;
50102;SDS011;35993;52.604;10.078;2023-03-11T06:18:28;6.77;;;3.43;;
50102;SDS011;35993;52.604;10.078;2023-03-11T06:20:56;6.00;;;3.37;;
50102;SDS011;35993;52.604;10.078;2023-03-11T06:23:23;6.90;;;3.57;;
50102;SDS011;35993;52.604;10.078;2023-03-11T06:25:57;8.07;;;3.80;;
50102;SDS011;35993;52.604;10.078;2023-03-11T06:28:26;7.57;;;3.80;;
50102;SDS011;35993;52.604;10.078;2023-03-11T06:30:52;8.07;;;4.17;;
50102;SDS011;35993;52.604;10.078;2023-03-11T06:33:22;9.30;;;4.30;;
50102;SDS011;35993;52.604;10.078;2023-03-11T06:35:55;8.73;;;4.33;;
50102;SDS011;35993;52.604;10.078;2023-03-11T06:38:22;12.87;;;5.80;;
50102;SDS011;35993;52.604;10.078;2023-03-11T06:40:48;12.10;;;5.23;;
50102;SDS011;35993;52.604;10.078;2023-03-11T06:43:13;12.07;;;4.50;;
50102;SDS011;35993;52.604;10.078;2023-03-11T06:45:41;9.67;;;4.57;;
50102;SDS011;35993;52.604;10.078;2023-03-11T06:48:07;24.97;;;8.33;;
50102;SDS011;35993;52.604;10.078;2023-03-11T06:50:33;21.10;;;7.93;;
50102;SDS011;35993;52.604;10.078;2023-03-11T06:53:01;7.17;;;4.47;;
50102;SDS011;35993;52.604;10.078;2023-03-11T06:55:31;11.13;;;4.80;;
50102;SDS011;35993;52.604;10.078;2023-03-11T06:57:57;10.10;;;4.43;;
50102;SDS011;35993;52.604;10.078;2023-03-11T07:00:24;9.30;;;4.23;;
50102;SDS011;35993;52.604;10.078;2023-03-11T07:02:54;10.93;;;5.83;;
50102;SDS011;35993;52.604;10.078;2023-03-11T07:05:20;11.23;;;4.70;;
50102;SDS011;35993;52.604;10.078;2023-03-11T07:07:47;8.57;;;3.83;;
50102;SDS011;35993;52.604;10.078;2023-03-11T07:10:12;10.00;;;3.67;;
50102;SDS011;35993;52.604;10.078;2023-03-11T07:12:38;9.53;;;4.13;;
50102;SDS011;35993;52.604;10.078;2023-03-11T07:15:04;6.97;;;3.10;;
50102;SDS011;35993;52.604;10.078;2023-03-11T07:17:32;6.37;;;3.03;;
50102;SDS011;35993;52.604;10.078;2023-03-11T07:19:58;9.43;;;3.20;;
50102;SDS011;35993;52.604;10.078;2023-03-11T07:22:23;7.73;;;2.87;;
50102;SDS011;35993;52.604;10.078;2023-03-11T07:24:49;6.60;;;3.10;;
50102;SDS011;35993;52.604;10.078;2023-03-11T07:27:14;9.13;;;3.20;;
50102;SDS011;35993;52.604;10.078;2023-03-11T07:29:40;7.10;;;3.63;;
50102;SDS011;35993;52.604;10.078;2023-03-11T07:32:06;11.13;;;3.73;;
50102;SDS011;35993;52.604;10.078;2023-03-11T07:34:32;8.77;;;3.83;;
50102;SDS011;35993;52.604;10.078;2023-03-11T07:36:58;6.50;;;3.57;;
50102;SDS011;35993;52.604;10.078;2023-03-11T07:39:23;6.77;;;4.17;;
50102;SDS011;35993;52.604;10.078;2023-03-11T07:41:49;7.43;;;4.10;;
50102;SDS011;35993;52.604;10.078;2023-03-11T07:44:15;8.93;;;3.63;;
50102;SDS011;35993;52.604;10.078;2023-03-11T07:46:41;6.93;;;3.90;;
50102;SDS011;35993;52.604;10.078;2023-03-11T07:49:08;8.00;;;4.60;;
50102;SDS011;35993;52.604;10.078;2023-03-11T07:51:34;11.87;;;5.87;;
50102;SDS011;35993;52.604;10.078;2023-03-11T07:54:01;7.30;;;4.03;;
50102;SDS011;35993;52.604;10.078;2023-03-11T07:56:28;15.23;;;8.10;;
50102;SDS011;35993;52.604;10.078;2023-03-11T07:58:56;14.47;;;6.37;;
50102;SDS011;35993;52.604;10.078;2023-03-11T08:01:24;8.87;;;4.80;;
50102;SDS011;35993;52.604;10.078;2023-03-11T08:03:52;7.03;;;4.13;;
50102;SDS011;35993;52.604;10.078;2023-03-11T08:06:22;8.23;;;4.80;;
50102;SDS011;35993;52.604;10.078;2023-03-11T08:08:53;9.83;;;4.57;;
50102;SDS011;35993;52.604;10.078;2023-03-11T08:11:19;9.97;;;4.97;;
50102;SDS011;35993;52.604;10.078;2023-03-11T08:13:45;8.23;;;4.93;;
50102;SDS011;35993;52.604;10.078;2023-03-11T08:16:13;9.17;;;4.97;;
50102;SDS011;35993;52.604;10.078;2023-03-11T08:18:40;8.47;;;4.93;;
50102;SDS011;35993;52.604;10.078;2023-03-11T08:21:07;10.33;;;5.17;;
50102;SDS011;35993;52.604;10.078;2023-03-11T08:23:34;7.80;;;4.77;;
50102;SDS011;35993;52.604;10.078;2023-03-11T08:26:06;7.03;;;4.57;;
50102;SDS011;35993;52.604;10.078;2023-03-11T08:28:33;9.83;;;4.80;;
50102;SDS011;35993;52.604;10.078;2023-03-11T08:30:59;9.83;;;5.10;;
50102;SDS011;35993;52.604;10.078;2023-03-11T08:33:25;10.77;;;4.80;;
50102;SDS011;35993;52.604;10.078;2023-03-11T08:35:50;8.77;;;4.77;;
50102;SDS011;35993;52.604;10.078;2023-03-11T08:38:16;7.97;;;5.30;;
50102;SDS011;35993;52.604;10.078;2023-03-11T08:40:42;7.50;;;4.43;;
50102;SDS011;35993;52.604;10.078;2023-03-11T08:43:09;7.73;;;4.23;;
50102;SDS011;35993;52.604;10.078;2023-03-11T08:45:38;7.17;;;4.33;;
50102;SDS011;35993;52.604;10.078;2023-03-11T08:48:04;9.73;;;4.87;;
50102;SDS011;35993;52.604;10.078;2023-03-11T08:50:31;8.03;;;4.70;;
50102;SDS011;35993;52.604;10.078;2023-03-11T08:52:56;7.67;;;4.57;;
50102;SDS011;35993;52.604;10.078;2023-03-11T08:55:24;7.40;;;4.53;;
50102;SDS011;35993;52.604;10.078;2023-03-11T08:57:52;7.77;;;4.17;;
50102;SDS011;35993;52.604;10.078;2023-03-11T09:00:18;7.35;;;4.15;;
50102;SDS011;35993;52.604;10.078;2023-03-11T09:02:44;7.03;;;3.83;;
50102;SDS011;35993;52.604;10.078;2023-03-11T09:05:09;11.43;;;5.60;;
50102;SDS011;35993;52.604;10.078;2023-03-11T09:07:35;11.30;;;4.20;;
50102;SDS011;35993;52.604;10.078;2023-03-11T09:10:02;9.27;;;3.95;;
50102;SDS011;35993;52.604;10.078;2023-03-11T09:12:28;8.17;;;4.10;;
50102;SDS011;35993;52.604;10.078;2023-03-11T09:14:54;8.83;;;3.77;;
50102;SDS011;35993;52.604;10.078;2023-03-11T09:17:20;8.43;;;3.80;;
50102;SDS011;35993;52.604;10.078;2023-03-11T09:19:46;10.13;;;3.80;;
50102;SDS011;35993;52.604;10.078;2023-03-11T09:22:12;6.68;;;3.88;;
50102;SDS011;35993;52.604;10.078;2023-03-11T09:24:38;6.22;;;3.63;;
50102;SDS011;35993;52.604;10.078;2023-03-11T09:27:03;7.38;;;3.40;;
50102;SDS011;35993;52.604;10.078;2023-03-11T09:29:29;5.35;;;3.55;;
50102;SDS011;35993;52.604;10.078;2023-03-11T09:31:54;6.30;;;3.72;;
50102;SDS011;35993;52.604;10.078;2023-03-11T09:34:20;7.20;;;3.50;;
50102;SDS011;35993;52.604;10.078;2023-03-11T09:36:45;7.83;;;3.50;;
50102;SDS011;35993;52.604;10.078;2023-03-11T09:39:11;7.20;;;4.10;;
50102;SDS011;35993;52.604;10.078;2023-03-11T09:41:56;9.55;;;4.50;;
50102;SDS011;35993;52.604;10.078;2023-03-11T09:44:27;7.40;;;4.10;;
50102;SDS011;35993;52.604;10.078;2023-03-11T09:52:38;10.00;;;3.72;;
50102;SDS011;35993;52.604;10.078;2023-03-11T09:56:10;8.20;;;4.53;;
50102;SDS011;35993;52.604;10.078;2023-03-11T09:58:18;12.63;;;4.22;;
50102;SDS011;35993;52.604;10.078;2023-03-11T10:00:45;7.37;;;3.77;;
50102;SDS011;35993;52.604;10.078;2023-03-11T10:03:13;5.60;;;3.30;;
50102;SDS011;35993;52.604;10.078;2023-03-11T10:05:53;5.33;;;3.43;;
50102;SDS011;35993;52.604;10.078;2023-03-11T10:08:32;5.55;;;3.22;;
50102;SDS011;35993;52.604;10.078;2023-03-11T10:16:58;4.72;;;2.97;;
50102;SDS011;35993;52.604;10.078;2023-03-11T10:22:10;5.95;;;3.40;;
50102;SDS011;35993;52.604;10.078;2023-03-11T10:27:38;7.37;;;3.23;;
50102;SDS011;35993;52.604;10.078;2023-03-11T10:30:22;8.80;;;3.10;;
50102;SDS011;35993;52.604;10.078;2023-03-11T10:33:00;4.60;;;2.85;;
50102;SDS011;35993;52.604;10.078;2023-03-11T10:38:10;4.82;;;2.60;;
50102;SDS011;35993;52.604;10.078;2023-03-11T10:40:40;6.43;;;2.80;;
50102;SDS011;35993;52.604;10.078;2023-03-11T10:43:12;5.97;;;2.90;;
50102;SDS011;35993;52.604;10.078;2023-03-11T10:45:41;8.65;;;3.00;;
50102;SDS011;35993;52.604;10.078;2023-03-11T10:48:09;6.63;;;2.80;;
50102;SDS011;35993;52.604;10.078;2023-03-11T10:50:36;5.68;;;3.20;;
50102;SDS011;35993;52.604;10.078;2023-03-11T10:53:14;7.78;;;2.65;;
50102;SDS011;35993;52.604;10.078;2023-03-11T10:55:46;9.00;;;3.00;;
50102;SDS011;35993;52.604;10.078;2023-03-11T10:58:14;9.57;;;3.40;;
50102;SDS011;35993;52.604;10.078;2023-03-11T11:00:42;6.22;;;2.75;;
50102;SDS011;35993;52.604;10.078;2023-03-11T11:03:11;6.75;;;3.03;;
50102;SDS011;35993;52.604;10.078;2023-03-11T11:05:44;9.18;;;3.25;;
50102;SDS011;35993;52.604;10.078;2023-03-11T11:08:22;5.22;;;2.83;;
50102;SDS011;35993;52.604;10.078;2023-03-11T11:10:54;5.50;;;2.70;;
50102;SDS011;35993;52.604;10.078;2023-03-11T11:13:23;10.48;;;3.10;;
50102;SDS011;35993;52.604;10.078;2023-03-11T11:15:51;9.82;;;3.08;;
50102;SDS011;35993;52.604;10.078;2023-03-11T11:21:07;7.65;;;3.17;;
50102;SDS011;35993;52.604;10.078;2023-03-11T11:23:43;7.45;;;3.60;;
50102;SDS011;35993;52.604;10.078;2023-03-11T11:28:43;11.02;;;3.65;;
50102;SDS011;35993;52.604;10.078;2023-03-11T11:31:19;8.32;;;2.17;;
50102;SDS011;35993;52.604;10.078;2023-03-11T11:33:48;5.43;;;2.72;;
50102;SDS011;35993;52.604;10.078;2023-03-11T11:36:18;6.03;;;3.28;;
50102;SDS011;35993;52.604;10.078;2023-03-11T11:38:45;5.63;;;2.22;;
50102;SDS011;35993;52.604;10.078;2023-03-11T11:41:14;8.10;;;2.75;;
50102;SDS011;35993;52.604;10.078;2023-03-11T11:46:17;10.00;;;3.38;;
50102;SDS011;35993;52.604;10.078;2023-03-11T11:49:32;5.38;;;2.67;;
50102;SDS011;35993;52.604;10.078;2023-03-11T11:51:44;8.20;;;3.20;;
50102;SDS011;35993;52.604;10.078;2023-03-11T11:54:17;4.45;;;2.15;;
50102;SDS011;35993;52.604;10.078;2023-03-11T11:56:48;3.65;;;2.13;;
50102;SDS011;35993;52.604;10.078;2023-03-11T11:59:15;6.80;;;2.90;;
50102;SDS011;35993;52.604;10.078;2023-03-11T12:04:26;4.28;;;1.75;;
50102;SDS011;35993;52.604;10.078;2023-03-11T12:10:43;6.45;;;2.00;;
50102;SDS011;35993;52.604;10.078;2023-03-11T12:12:53;10.88;;;1.63;;
50102;SDS011;35993;52.604;10.078;2023-03-11T12:17:59;5.95;;;2.30;;
50102;SDS011;35993;52.604;10.078;2023-03-11T12:20:36;3.58;;;1.92;;
50102;SDS011;35993;52.604;10.078;2023-03-11T12:23:23;12.45;;;2.30;;
50102;SDS011;35993;52.604;10.078;2023-03-11T12:28:55;6.65;;;2.10;;
50102;SDS011;35993;52.604;10.078;2023-03-11T12:31:26;6.00;;;2.40;;
50102;SDS011;35993;52.604;10.078;2023-03-11T12:33:58;6.25;;;2.30;;
50102;SDS011;35993;52.604;10.078;2023-03-11T12:36:30;8.52;;;2.22;;
50102;SDS011;35993;52.604;10.078;2023-03-11T12:38:59;6.05;;;1.90;;
50102;SDS011;35993;52.604;10.078;2023-03-11T12:44:23;5.40;;;1.95;;
50102;SDS011;35993;52.604;10.078;2023-03-11T12:46:59;3.13;;;1.90;;
50102;SDS011;35993;52.604;10.078;2023-03-11T12:49:34;5.65;;;1.60;;
50102;SDS011;35993;52.604;10.078;2023-03-11T12:59:52;3.45;;;1.92;;
50102;SDS011;35993;52.604;10.078;2023-03-11T13:02:40;5.53;;;1.77;;
50102;SDS011;35993;52.604;10.078;2023-03-11T13:08:08;3.95;;;1.70;;
50102;SDS011;35993;52.604;10.078;2023-03-11T13:18:41;4.35;;;2.00;;
50102;SDS011;35993;52.604;10.078;2023-03-11T13:24:38;4.63;;;2.00;;
50102;SDS011;35993;52.604;10.078;2023-03-11T13:32:24;3.85;;;1.52;;
50102;SDS011;35993;52.604;10.078;2023-03-11T13:35:09;5.03;;;1.98;;
50102;SDS011;35993;52.604;10.078;2023-03-11T13:38:09;3.65;;;1.80;;
50102;SDS011;35993;52.604;10.078;2023-03-11T13:40:55;7.82;;;2.15;;
50102;SDS011;35993;52.604;10.078;2023-03-11T13:43:21;4.18;;;1.70;;
50102;SDS011;35993;52.604;10.078;2023-03-11T13:48:41;15.70;;;6.25;;
50102;SDS011;35993;52.604;10.078;2023-03-11T13:51:15;12.60;;;4.28;;
50102;SDS011;35993;52.604;10.078;2023-03-11T13:53:53;11.93;;;3.13;;
50102;SDS011;35993;52.604;10.078;2023-03-11T13:56:27;8.82;;;3.08;;
50102;SDS011;35993;52.604;10.078;2023-03-11T14:02:16;7.60;;;2.80;;
50102;SDS011;35993;52.604;10.078;2023-03-11T14:04:47;4.80;;;1.52;;
50102;SDS011;35993;52.604;10.078;2023-03-11T14:07:19;6.85;;;1.90;;
50102;SDS011;35993;52.604;10.078;2023-03-11T14:09:49;4.38;;;1.95;;
50102;SDS011;35993;52.604;10.078;2023-03-11T14:12:15;6.65;;;1.70;;
50102;SDS011;35993;52.604;10.078;2023-03-11T14:17:14;5.35;;;2.05;;
50102;SDS011;35993;52.604;10.078;2023-03-11T14:19:41;6.05;;;2.90;;
50102;SDS011;35993;52.604;10.078;2023-03-11T14:22:08;7.43;;;1.77;;
50102;SDS011;35993;52.604;10.078;2023-03-11T14:24:34;4.28;;;1.63;;
50102;SDS011;35993;52.604;10.078;2023-03-11T14:27:03;5.25;;;2.67;;
50102;SDS011;35993;52.604;10.078;2023-03-11T14:29:37;4.18;;;1.77;;
50102;SDS011;35993;52.604;10.078;2023-03-11T14:34:59;5.47;;;1.58;;
50102;SDS011;35993;52.604;10.078;2023-03-11T14:39:58;6.18;;;2.88;;
50102;SDS011;35993;52.604;10.078;2023-03-11T14:42:25;9.38;;;3.83;;
50102;SDS011;35993;52.604;10.078;2023-03-11T14:50:13;5.90;;;2.80;;
50102;SDS011;35993;52.604;10.078;2023-03-11T14:52:48;5.13;;;2.30;;
50102;SDS011;35993;52.604;10.078;2023-03-11T14:55:22;5.80;;;1.90;;
50102;SDS011;35993;52.604;10.078;2023-03-11T15:00:31;6.55;;;2.45;;
50102;SDS011;35993;52.604;10.078;2023-03-11T15:03:07;4.30;;;1.63;;
50102;SDS011;35993;52.604;10.078;2023-03-11T15:08:41;7.45;;;2.67;;
50102;SDS011;35993;52.604;10.078;2023-03-11T15:13:36;7.40;;;2.70;;
50102;SDS011;35993;52.604;10.078;2023-03-11T15:16:04;3.28;;;1.50;;
50102;SDS011;35993;52.604;10.078;2023-03-11T15:18:35;7.15;;;2.70;;
50102;SDS011;35993;52.604;10.078;2023-03-11T15:23:30;8.70;;;2.65;;
50102;SDS011;35993;52.604;10.078;2023-03-11T15:25:58;6.93;;;2.30;;
50102;SDS011;35993;52.604;10.078;2023-03-11T15:28:26;8.13;;;2.63;;
50102;SDS011;35993;52.604;10.078;2023-03-11T15:33:51;4.47;;;2.05;;
50102;SDS011;35993;52.604;10.078;2023-03-11T15:36:33;5.95;;;2.00;;
50102;SDS011;35993;52.604;10.078;2023-03-11T15:39:19;6.20;;;2.47;;
50102;SDS011;35993;52.604;10.078;2023-03-11T15:42:10;7.10;;;2.95;;
50102;SDS011;35993;52.604;10.078;2023-03-11T15:47:33;11.27;;;3.95;;
50102;SDS011;35993;52.604;10.078;2023-03-11T15:50:22;7.55;;;4.18;;
50102;SDS011;35993;52.604;10.078;2023-03-11T15:52:55;3.17;;;2.07;;
50102;SDS011;35993;52.604;10.078;2023-03-11T15:55:22;7.28;;;3.08;;
50102;SDS011;35993;52.604;10.078;2023-03-11T15:57:51;7.97;;;3.30;;
50102;SDS011;35993;52.604;10.078;2023-03-11T16:00:23;8.13;;;3.80;;
50102;SDS011;35993;52.604;10.078;2023-03-11T16:02:49;4.88;;;1.80;;
50102;SDS011;35993;52.604;10.078;2023-03-11T16:05:16;6.85;;;2.35;;
50102;SDS011;35993;52.604;10.078;2023-03-11T16:07:43;3.28;;;1.70;;
50102;SDS011;35993;52.604;10.078;2023-03-11T16:10:10;7.30;;;3.60;;
50102;SDS011;35993;52.604;10.078;2023-03-11T16:12:36;5.28;;;2.33;;
50102;SDS011;35993;52.604;10.078;2023-03-11T16:15:02;4.25;;;1.42;;
50102;SDS011;35993;52.604;10.078;2023-03-11T16:17:28;3.92;;;1.58;;
50102;SDS011;35993;52.604;10.078;2023-03-11T16:19:54;2.90;;;1.50;;
50102;SDS011;35993;52.604;10.078;2023-03-11T16:22:30;4.13;;;2.08;;
50102;SDS011;35993;52.604;10.078;2023-03-11T16:24:59;5.25;;;2.28;;
50102;SDS011;35993;52.604;10.078;2023-03-11T16:27:26;5.53;;;2.35;;
50102;SDS011;35993;52.604;10.078;2023-03-11T16:29:52;7.30;;;2.42;;
50102;SDS011;35993;52.604;10.078;2023-03-11T16:32:17;6.32;;;1.73;;